Latest Weather Observations for Penrith

IDN60901

Issued at 7:31 pm EDT Sunday 15 December 2019 (issued every 10 minutes, with the page automatically refreshed every 10 minutes)

About weather observations | Map of Sydney area stations | Latest observations for Sydney area | Other Formats
Station Details ID: 067113 Name: PENRITH LAKES AWS Lat: -33.72 Lon: 150.68 Height: 24.7 m
Data from the previous 72 hours. | See also: Recent months at Penrith
Date/Time
EDT
Temp
°C
App
Temp
°C
Dew
Point
°C
Rel
Hum
%
Delta-T
°C
Wind Press
QNH
hPa
Press
MSL
hPa
Rain since
9am
mm
Dir  Spd
km/h
Gust
km/h
Spd
kts
Gust
kts
15/07:30pm 29.1 31.5 17.9 50 7.1 NE 2 6 1 3 - - 0.0
15/07:00pm 29.7 30.6 17.5 48 7.7 ESE 9 15 5 8 - - 0.0
15/06:30pm 30.7 30.9 16.7 43 8.8 ESE 11 17 6 9 - - 0.0
15/06:00pm 31.1 31.7 15.9 40 9.5 SE 7 13 4 7 - - 0.0
15/05:30pm 33.6 29.9 2.4 14 15.9 W 11 20 6 11 - - 0.0
15/05:00pm 33.6 29.5 2.4 14 15.9 W 13 20 7 11 - - 0.0
15/04:30pm 33.8 28.1 2.6 14 16.0 W 22 32 12 17 - - 0.0
15/04:00pm 33.8 32.3 9.1 22 14.0 SSW 7 11 4 6 - - 0.0
15/03:30pm 34.6 31.4 9.8 22 14.3 W 17 30 9 16 - - 0.0
15/03:00pm 33.3 33.0 13.4 30 12.0 ESE 7 11 4 6 - - 0.0
15/02:30pm 32.6 32.4 14.7 34 11.0 NE 9 17 5 9 - - 0.0
15/02:00pm 32.2 32.0 14.8 35 10.7 ENE 9 19 5 10 - - 0.0
15/01:30pm 32.2 32.8 15.7 37 10.3 N 7 17 4 9 - - 0.0
15/01:00pm 31.1 31.2 15.5 39 9.7 NE 9 19 5 10 - - 0.0
15/12:30pm 30.8 30.5 16.4 42 9.0 NNE 13 26 7 14 - - 0.0
15/12:00pm 29.4 29.4 16.2 44 8.2 NNE 11 22 6 12 - - 0.0
15/11:30am 28.0 28.8 17.2 52 6.8 NNE 9 17 5 9 - - 0.0
15/11:00am 26.9 27.5 17.7 57 5.8 N 11 17 6 9 - - 0.0
15/10:30am 26.2 27.1 17.6 59 5.4 N 9 15 5 8 - - 0.0
15/10:00am 25.2 26.6 17.9 64 4.6 N 7 13 4 7 - - 0.0
15/09:30am 23.6 25.1 17.6 69 3.7 N 6 11 3 6 - - 0.0
15/09:00am 22.5 23.9 17.4 73 3.2 N 6 9 3 5 - - 0.0
15/08:30am 22.0 24.0 17.8 77 2.6 N 4 7 2 4 - - 0.0
15/08:00am 21.5 24.2 17.7 79 2.4 CALM 0 6 0 3 - - 0.0
15/07:30am 20.5 22.7 18.3 87 1.4 W 4 4 2 2 - - 0.0
15/07:00am 20.1 22.7 18.4 90 1.1 SSE 2 4 1 2 - - 0.0
15/06:30am 19.0 21.0 18.7 98 0.2 SSE 6 7 3 4 - - 0.0
15/06:00am 18.4 20.1 18.1 98 0.2 SSE 6 7 3 4 - - 0.0
15/05:30am 18.4 20.4 17.8 96 0.4 S 4 6 2 3 - - 0.0
15/05:00am 18.5 21.0 17.3 93 0.7 CALM 0 0 0 0 - - 0.0
15/04:30am 19.0 20.8 17.5 91 0.9 S 4 6 2 3 - - 0.0
15/04:00am 19.5 21.0 17.6 89 1.2 SSW 6 9 3 5 - - 0.0
15/03:30am 19.8 21.2 17.9 89 1.2 SW 7 9 4 5 - - 0.0
15/03:00am 19.9 21.5 17.9 88 1.2 SSW 6 7 3 4 - - 0.0
15/02:30am 20.1 21.7 17.9 87 1.4 SSW 6 9 3 5 - - 0.0
15/02:00am 20.3 21.9 17.9 86 1.5 S 6 7 3 4 - - 0.0
15/01:30am 20.4 22.0 17.8 85 1.6 S 6 7 3 4 - - 0.0
15/01:00am 20.5 22.0 17.7 84 1.7 S 6 7 3 4 - - 0.0
15/12:30am 20.5 22.4 17.7 84 1.7 SE 4 6 2 3 - - 0.0
15/12:00am 20.6 22.0 17.8 84 1.7 SSE 7 11 4 6 - - 0.0
 
Date/Time
EDT
Temp
°C
App
Temp
°C
Dew
Point
°C
Rel
Hum
%
Delta-T
°C
Wind Press
QNH
hPa
Press
MSL
hPa
Rain since
9am
mm
Dir  Spd
km/h
Gust
km/h
Spd
kts
Gust
kts
14/11:30pm 20.8 21.5 18.0 84 1.7 SSE 11 17 6 9 - - 0.0
14/11:00pm 21.1 22.2 17.9 82 2.0 SSE 9 13 5 7 - - 0.0
14/10:30pm 21.1 21.4 17.9 82 2.0 SSE 13 19 7 10 - - 0.0
14/10:00pm 21.6 21.9 18.0 80 2.2 SE 13 19 7 10 - - 0.0
14/09:30pm 22.0 21.9 17.8 77 2.6 SSE 15 20 8 11 - - 0.0
14/09:00pm 22.3 22.1 17.7 75 2.9 SSE 15 20 8 11 - - 0.0
14/08:30pm 22.5 22.5 17.2 72 3.3 SSE 13 19 7 10 - - 0.0
14/08:00pm 22.8 22.9 17.5 72 3.3 SSE 13 20 7 11 - - 0.0
14/07:30pm 23.1 22.8 17.3 70 3.6 SSE 15 20 8 11 - - 0.0
14/07:00pm 23.6 22.5 17.3 67 3.9 SE 19 24 10 13 - - 0.0
14/06:30pm 24.4 23.0 16.6 61 4.8 SSE 19 30 10 16 - - 0.0
14/06:00pm 25.9 25.3 16.7 57 5.7 SE 15 22 8 12 - - 0.0
14/05:30pm 26.4 24.3 14.8 49 7.0 SE 19 26 10 14 - - 0.0
14/05:00pm 27.4 24.4 13.7 43 8.1 SE 22 33 12 18 - - 0.0
14/04:30pm 28.4 24.7 15.0 44 8.2 SE 28 43 15 23 - - 0.0
14/04:12pm 30.2 26.7 15.5 41 9.1 ESE 28 39 15 21 - - 0.0
14/04:00pm 32.7 31.1 10.1 25 13.0 ENE 9 17 5 9 - - 0.0
14/03:30pm 32.1 30.7 9.6 25 12.8 ENE 7 13 4 7 - - 0.0
14/03:00pm 32.1 30.9 10.2 26 12.5 NE 7 15 4 8 - - 0.0
14/02:30pm 32.3 31.3 10.9 27 12.4 SE 7 11 4 6 - - 0.0
14/02:00pm 31.6 30.2 10.9 28 12.0 ESE 9 15 5 8 - - 0.0
14/01:30pm 31.5 30.6 11.3 29 11.7 SSE 7 11 4 6 - - 0.0
14/01:00pm 30.7 29.5 11.6 31 11.1 SSW 9 19 5 10 - - 0.0
14/12:30pm 29.6 28.7 11.2 32 10.6 SSE 7 11 4 6 - - 0.0
14/12:00pm 28.7 27.8 10.8 33 10.2 S 6 9 3 5 - - 0.0
14/11:30am 28.0 27.5 12.0 37 9.3 ENE 6 11 3 6 - - 0.0
14/11:00am 27.2 26.5 10.0 34 9.6 NNW 4 9 2 5 - - 0.0
14/10:30am 25.7 27.0 15.1 52 6.4 NE 2 11 1 6 - - 0.0
14/10:00am 25.1 25.6 15.1 53 6.0 ENE 6 9 3 5 - - 0.0
14/09:30am 23.8 24.3 15.0 57 5.3 W 6 17 3 9 - - 0.0
14/09:00am 22.4 23.4 15.3 64 4.2 SSE 4 7 2 4 - - 0.0
14/08:30am 21.3 22.6 15.2 68 3.6 N 2 6 1 3 - - 0.0
14/08:00am 20.1 21.2 14.7 71 3.2 WSW 2 4 1 2 - - 0.0
14/07:30am 19.1 19.8 14.6 75 2.6 W 4 6 2 3 - - 0.0
14/07:00am 18.1 19.6 15.7 86 1.4 WSW 2 2 1 1 - - 0.0
14/06:30am 17.4 17.9 15.0 86 1.4 WSW 6 6 3 3 - - 0.0
14/06:00am 17.1 17.9 14.7 86 1.4 S 4 6 2 3 - - 0.0
14/05:30am 18.0 19.0 15.4 85 1.5 SSE 4 6 2 3 - - 0.0
14/05:00am 18.1 18.8 15.7 86 1.4 S 6 7 3 4 - - 0.0
14/04:30am 17.9 19.9 15.9 88 1.2 CALM 0 0 0 0 - - 0.0
14/04:00am 17.7 19.0 15.1 85 1.5 S 2 4 1 2 - - 0.0
14/03:30am 18.5 19.6 15.6 83 1.7 S 4 6 2 3 - - 0.0
14/03:00am 19.1 20.5 15.4 79 2.2 SSW 2 6 1 3 - - 0.0
14/02:30am 19.4 20.5 15.5 78 2.3 SW 4 6 2 3 - - 0.0
14/02:00am 19.3 20.7 15.4 78 2.3 WSW 2 4 1 2 - - 0.0
14/01:30am 19.3 20.7 15.4 78 2.3 WSW 2 4 1 2 - - 0.0
14/01:00am 19.4 21.0 14.9 75 2.6 CALM 0 0 0 0 - - 0.0
14/12:30am 19.7 20.5 14.9 74 2.8 ENE 4 6 2 3 - - 0.0
14/12:00am 19.9 20.8 15.1 74 2.8 ESE 4 4 2 2 - - 0.0
 
Date/Time
EDT
Temp
°C
App
Temp
°C
Dew
Point
°C
Rel
Hum
%
Delta-T
°C
Wind Press
QNH
hPa
Press
MSL
hPa
Rain since
9am
mm
Dir  Spd
km/h
Gust
km/h
Spd
kts
Gust
kts
13/11:30pm 19.7 20.5 14.7 73 2.9 E 4 4 2 2 - - 0.0
13/11:00pm 20.0 20.7 14.6 71 3.2 E 4 6 2 3 - - 0.0
13/10:30pm 20.6 21.0 14.7 69 3.5 E 6 9 3 5 - - 0.0
13/10:00pm 20.8 20.8 14.2 66 3.8 ENE 7 9 4 5 - - 0.0
13/09:30pm 20.9 21.0 13.8 64 4.1 ENE 6 9 3 5 - - 0.0
13/09:00pm 21.0 20.5 13.7 63 4.2 ENE 9 13 5 7 - - 0.0
13/08:30pm 21.2 20.9 14.4 65 4.0 NE 9 13 5 7 - - 0.0
13/08:00pm 21.3 20.7 14.7 66 3.9 ENE 11 15 6 8 - - 0.0
13/07:30pm 21.2 20.8 15.1 68 3.6 ESE 11 15 6 8 - - 0.0
13/07:00pm 21.4 20.6 15.0 67 3.8 SE 13 20 7 11 - - 0.0
13/06:30pm 21.8 20.3 15.2 66 3.9 SE 17 22 9 12 - - 0.0
13/06:00pm 22.4 21.6 15.0 63 4.4 SE 13 19 7 10 - - 0.0
13/05:30pm 22.6 21.9 14.4 60 4.8 SE 11 17 6 9 - - 0.0
13/05:00pm 22.8 21.1 14.6 60 4.8 ESE 17 26 9 14 - - 0.0
13/04:30pm 23.4 21.3 14.7 58 5.2 ESE 19 28 10 15 - - 0.0
13/04:00pm 23.7 22.2 14.1 55 5.6 ESE 15 26 8 14 - - 0.0
13/03:30pm 24.7 22.4 14.2 52 6.2 ESE 19 32 10 17 - - 0.0
13/03:00pm 24.5 21.1 13.7 51 6.3 ESE 24 32 13 17 - - 0.0
13/02:30pm 25.9 24.2 11.3 40 8.3 E 11 17 6 9 - - 0.0
13/02:00pm 26.2 24.7 11.9 41 8.2 ENE 11 20 6 11 - - 0.0
13/01:30pm 25.6 24.3 11.4 41 8.0 NNE 9 15 5 8 - - 0.0
13/01:00pm 25.5 24.0 12.0 43 7.7 NE 11 19 6 10 - - 0.0
13/12:30pm 24.3 23.1 11.6 45 7.2 N 9 17 5 9 - - 0.0
13/12:00pm 25.0 24.1 12.6 46 7.2 NNE 9 17 5 9 - - 0.0
13/11:30am 23.4 22.4 12.4 50 6.3 NNE 9 15 5 8 - - 0.0
13/11:00am 23.7 23.9 13.0 51 6.2 W 4 13 2 7 - - 0.0
13/10:30am 22.1 21.7 12.9 56 5.3 NNE 7 11 4 6 - - 0.0
13/10:00am 22.1 22.1 13.5 58 5.0 ENE 6 9 3 5 - - 0.0
13/09:30am 20.9 21.0 13.8 64 4.1 WSW 6 7 3 4 - - 0.0
13/09:00am 20.3 20.5 14.2 68 3.5 SW 6 9 3 5 - - 0.0
13/08:30am 19.6 20.0 13.8 69 3.3 SSW 4 6 2 3 - - 0.0
13/08:00am 18.8 18.8 14.1 74 2.7 S 7 9 4 5 - - 0.0
13/07:30am 18.3 19.3 14.2 77 2.4 SSW 2 6 1 3 - - 0.0
13/07:00am 17.6 18.4 14.7 83 1.7 SSE 4 6 2 3 - - 0.0
13/06:30am 17.1 18.6 14.6 85 1.4 CALM 0 0 0 0 - - 0.0
13/06:00am 16.6 17.9 14.2 86 1.4 CALM 0 0 0 0 - - 0.0
13/05:30am 16.6 17.8 13.9 84 1.5 CALM 0 0 0 0 - - 0.0
13/05:00am 16.9 17.9 14.2 84 1.5 SW 2 4 1 2 - - 0.0
13/04:30am 17.0 17.7 14.6 86 1.4 W 4 6 2 3 - - 0.0
13/04:00am 16.9 17.6 14.5 86 1.4 WNW 4 6 2 3 - - 0.0
13/03:30am 17.0 17.7 14.5 85 1.4 NW 4 6 2 3 - - 0.0
13/03:00am 17.1 18.2 14.6 85 1.4 W 2 7 1 4 - - 0.0
13/02:30am 17.0 17.7 14.6 86 1.4 SSW 4 6 2 3 - - 0.0
13/02:00am 17.0 17.2 14.8 87 1.3 SW 7 9 4 5 - - 0.0
13/01:30am 16.7 17.2 15.1 90 0.9 SW 6 7 3 4 - - 0.0
13/01:00am 16.4 16.9 15.6 95 0.5 SW 7 9 4 5 - - 0.0
13/12:30am 16.2 16.6 15.4 95 0.5 S 7 11 4 6 - - 0.0
13/12:00am 16.1 15.9 15.8 98 0.2 SSE 11 19 6 10 - - 0.0
 
Date/Time
EDT
Temp
°C
App
Temp
°C
Dew
Point
°C
Rel
Hum
%
Delta-T
°C
Wind Press
QNH
hPa
Press
MSL
hPa
Rain since
9am
mm
Dir  Spd
km/h
Gust
km/h
Spd
kts
Gust
kts
12/11:30pm 16.7 16.3 15.2 91 0.9 S 11 15 6 8 - - 0.0
12/11:00pm 17.1 17.1 15.1 88 1.2 SSW 9 17 5 9 - - 0.0
12/10:30pm 18.3 17.6 14.4 78 2.2 SE 11 17 6 9 - - 0.0
12/10:00pm 18.9 18.5 14.0 73 2.8 SSE 9 15 5 8 - - 0.0
12/09:30pm 19.2 18.3 13.6 70 3.2 SSE 11 19 6 10 - - 0.0
12/09:00pm 19.1 18.2 13.7 71 3.1 SSE 11 20 6 11 - - 0.0
12/08:30pm 19.2 18.7 13.8 71 3.1 SE 9 17 5 9 - - 0.0
12/08:00pm 19.5 18.3 14.1 71 3.1 SSE 13 20 7 11 - - 0.0

Latest Capital City Observations: Canberra | Sydney | Melbourne | Brisbane | Adelaide | Perth | Hobart | Darwin

Other formats

Comma delimited format used in spreadsheet applications
http://www.bom.gov.au/fwo/IDN60901/IDN60901.94763.axf

JavaScript Object Notation format (JSON) in row-major order
http://www.bom.gov.au/fwo/IDN60901/IDN60901.94763.json

Data quality

Most of these data are generated automatically and are frequently updated. Quality checks on data are not normally performed. It is possible for incorrect values to appear. Refer to information at About Latest Weather Observations and please check the disclaimer before using these data.